Time;durP1;ratioP1;P1;durP2;ratioP2;P2;SDS_P1;SDS_P2;PMS_P1;PMS_P2;Temp;Humidity;BMP_temperature;BMP_pressure;BME280_temperature;BME280_humidity;BME280_pressure;Samples;Min_cycle;Max_cycle;Signal;HPM_P1;HPM_P2
2022/12/05 00:01:33;;;;;;;;;;;;;;;;;;4993585;28;19925;-76
2022/12/05 00:04:00;;;;;;;;;;;;;;;;;;4988926;28;19934;-74
2022/12/05 00:06:28;;;;;;;;;;;;;;;;;;4987788;28;19936;-75
2022/12/05 00:08:55;;;;;;;;;;;;;;;;;;4987453;28;20421;-75
2022/12/05 00:11:23;;;;;;;;;;;;;;;;;;4992370;28;19925;-75
2022/12/05 00:13:51;;;;;;;;;;;;;;;;;;4995195;28;19926;-74
2022/12/05 00:16:19;;;;;;;;;;;;;;;;;;4995046;28;20405;-74
2022/12/05 00:18:45;;;;;;;;;;;;;;;;;;4994731;28;19933;-74
2022/12/05 00:21:13;;;;;;;;;;;;;;;;;;4994671;28;20392;-74
2022/12/05 00:23:39;;;;;;;;;;;;;;;;;;4994842;28;19932;-75
2022/12/05 00:26:07;;;;;;;;;;;;;;;;;;4995482;28;19968;-75
2022/12/05 00:28:34;;;;;;;;;;;;;;;;;;4994717;28;20005;-75
2022/12/05 00:31:02;;;;;;;;;;;;;;;;;;4994135;28;20336;-75
2022/12/05 00:33:28;;;;;;;;;;;;;;;;;;4994557;28;20020;-75
2022/12/05 00:35:54;;;;;;;;;;;;;;;;;;4994076;28;19926;-75
2022/12/05 00:38:21;;;;;;;;;;;;;;;;;;4994452;28;19925;-76
2022/12/05 00:40:47;;;;;;;;;;;;;;;;;;4994550;28;20409;-75
2022/12/05 00:43:15;;;;;;;;;;;;;;;;;;4993825;28;20025;-76
2022/12/05 00:45:41;;;;;;;;;;;;;;;;;;4994687;28;20289;-75
2022/12/05 00:48:08;;;;;;;;;;;;;;;;;;4994388;28;19996;-75
2022/12/05 00:50:34;;;;;;;;;;;;;;;;;;4994317;28;19938;-74
2022/12/05 00:53:01;;;;;;;;;;;;;;;;;;4994117;28;19925;-75
2022/12/05 00:55:27;;;;;;;;;;;;;;;;;;4994496;28;20150;-75
2022/12/05 00:57:54;;;;;;;;;;;;;;;;;;4994194;28;19965;-74
2022/12/05 01:00:21;;;;;;;;;;;;;;;;;;4993684;28;19932;-74
2022/12/05 01:02:48;;;;;;;;;;;;;;;;;;4993643;28;19933;-75
2022/12/05 01:05:14;;;;;;;;;;;;;;;;;;4993701;28;19933;-74
2022/12/05 01:07:41;;;;;;;;;;;;;;;;;;4986777;28;19926;-75
2022/12/05 01:10:07;;;;;;;;;;;;;;;;;;5013698;28;19979;-76
2022/12/05 01:12:34;;;;;;;;;;;;;;;;;;4994334;28;20024;-75
2022/12/05 01:15:00;;;;;;;;;;;;;;;;;;4993111;28;19925;-75
2022/12/05 01:17:28;;;;;;;;;;;;;;;;;;4993392;28;19991;-76
2022/12/05 01:19:54;;;;;;;;;;;;;;;;;;4994013;28;19926;-76
2022/12/05 01:22:21;;;;;;;;;;;;;;;;;;4993389;28;19969;-75
2022/12/05 01:24:47;;;;;;;;;;;;;;;;;;4993102;28;20028;-76
2022/12/05 01:27:14;;;;;;;;;;;;;;;;;;4993775;28;20312;-76
2022/12/05 01:29:40;;;;;;;;;;;;;;;;;;4993387;28;19932;-76
2022/12/05 01:32:07;;;;;;;;;;;;;;;;;;4993106;28;19925;-76
2022/12/05 01:34:34;;;;;;;;;;;;;;;;;;4993738;28;19925;-76
2022/12/05 01:37:01;;;;;;;;;;;;;;;;;;4992909;28;19926;-75
2022/12/05 01:39:27;;;;;;;;;;;;;;;;;;4992863;28;19925;-76
2022/12/05 01:41:54;;;;;;;;;;;;;;;;;;4993236;28;20301;-76
2022/12/05 01:44:39;;;;;;;;;;;;;;;;;;4993324;28;19933;-76
2022/12/05 01:47:05;;;;;;;;;;;;;;;;;;4993251;28;20004;-76
2022/12/05 01:49:34;;;;;;;;;;;;;;;;;;4993356;28;20046;-75
2022/12/05 01:52:03;;;;;;;;;;;;;;;;;;4992819;28;19961;-76
2022/12/05 01:54:30;;;;;;;;;;;;;;;;;;4993122;28;19985;-75
2022/12/05 01:56:58;;;;;;;;;;;;;;;;;;4992939;28;20359;-76
2022/12/05 01:59:25;;;;;;;;;;;;;;;;;;4993497;28;19926;-75
2022/12/05 02:01:52;;;;;;;;;;;;;;;;;;4992642;28;20345;-76
2022/12/05 02:04:18;;;;;;;;;;;;;;;;;;4993646;28;19933;-75
2022/12/05 02:06:45;;;;;;;;;;;;;;;;;;4992947;28;19926;-75
2022/12/05 02:09:13;;;;;;;;;;;;;;;;;;4992675;28;19932;-75
2022/12/05 02:11:45;;;;;;;;;;;;;;;;;;4992398;28;19932;-77
2022/12/05 02:14:28;;;;;;;;;;;;;;;;;;4992606;28;20365;-76
2022/12/05 02:16:58;;;;;;;;;;;;;;;;;;4971813;28;19930;-74
2022/12/05 02:19:35;;;;;;;;;;;;;;;;;;4988948;28;19926;-75
2022/12/05 02:22:11;;;;;;;;;;;;;;;;;;4992624;28;19926;-75
2022/12/05 02:24:55;;;;;;;;;;;;;;;;;;4992859;28;20389;-75
2022/12/05 02:27:33;;;;;;;;;;;;;;;;;;4973692;28;20014;-76
2022/12/05 02:30:06;;;;;;;;;;;;;;;;;;4985918;28;19926;-76
2022/12/05 02:32:38;;;;;;;;;;;;;;;;;;4992855;28;19933;-75
2022/12/05 02:35:09;;;;;;;;;;;;;;;;;;4992428;28;19926;-75
2022/12/05 02:37:40;;;;;;;;;;;;;;;;;;4992312;28;20373;-75
2022/12/05 02:40:10;;;;;;;;;;;;;;;;;;4992300;28;19930;-76
2022/12/05 02:42:38;;;;;;;;;;;;;;;;;;4992431;28;19932;-74
2022/12/05 02:45:08;;;;;;;;;;;;;;;;;;4991489;28;19965;-74
2022/12/05 02:47:36;;;;;;;;;;;;;;;;;;4992463;28;19977;-74
2022/12/05 02:50:03;;;;;;;;;;;;;;;;;;4992691;28;19926;-77
2022/12/05 02:52:31;;;;;;;;;;;;;;;;;;4995670;28;19926;-76
2022/12/05 02:54:57;;;;;;;;;;;;;;;;;;4996136;28;19929;-76
2022/12/05 02:57:24;;;;;;;;;;;;;;;;;;4996758;28;19926;-76
2022/12/05 02:59:51;;;;;;;;;;;;;;;;;;4996197;28;19933;-76
2022/12/05 03:02:24;;;;;;;;;;;;;;;;;;4995629;28;20016;-76
2022/12/05 03:04:51;;;;;;;;;;;;;;;;;;4995340;28;20428;-75
2022/12/05 03:07:19;;;;;;;;;;;;;;;;;;4996217;28;19932;-75
2022/12/05 03:09:47;;;;;;;;;;;;;;;;;;4996464;28;19925;-75
2022/12/05 03:12:18;;;;;;;;;;;;;;;;;;4995458;28;20393;-75
2022/12/05 03:14:46;;;;;;;;;;;;;;;;;;4995759;28;19934;-75
2022/12/05 03:17:17;;;;;;;;;;;;;;;;;;4996118;28;20024;-76
2022/12/05 03:19:48;;;;;;;;;;;;;;;;;;4996800;28;20308;-75
2022/12/05 03:22:17;;;;;;;;;;;;;;;;;;4995998;28;19932;-76
2022/12/05 03:24:43;;;;;;;;;;;;;;;;;;4996086;28;19926;-74
2022/12/05 03:27:15;;;;;;;;;;;;;;;;;;4996193;28;19969;-75
2022/12/05 03:29:44;;;;;;;;;;;;;;;;;;4978451;28;20017;-75
2022/12/05 03:32:13;;;;;;;;;;;;;;;;;;4992611;28;20012;-75
2022/12/05 03:34:52;;;;;;;;;;;;;;;;;;4982708;28;19936;-75
2022/12/05 03:37:22;;;;;;;;;;;;;;;;;;4996114;28;20009;-75
2022/12/05 03:39:53;;;;;;;;;;;;;;;;;;4995852;28;19930;-74
2022/12/05 03:42:20;;;;;;;;;;;;;;;;;;4995465;28;19929;-74
2022/12/05 03:44:50;;;;;;;;;;;;;;;;;;4995682;28;19926;-75
2022/12/05 03:47:19;;;;;;;;;;;;;;;;;;4990275;28;19932;-75
2022/12/05 03:49:47;;;;;;;;;;;;;;;;;;4995486;28;19980;-75
2022/12/05 03:52:15;;;;;;;;;;;;;;;;;;4994629;28;19968;-75
2022/12/05 03:54:45;;;;;;;;;;;;;;;;;;4994761;28;20348;-75
2022/12/05 03:57:14;;;;;;;;;;;;;;;;;;4994581;28;19926;-75
2022/12/05 03:59:44;;;;;;;;;;;;;;;;;;4995313;28;20024;-74
2022/12/05 04:02:13;;;;;;;;;;;;;;;;;;4994674;28;19979;-75
2022/12/05 04:04:45;;;;;;;;;;;;;;;;;;4990353;28;19940;-75
2022/12/05 04:07:13;;;;;;;;;;;;;;;;;;4989262;28;19932;-75
2022/12/05 04:09:43;;;;;;;;;;;;;;;;;;4975726;28;20452;-75
2022/12/05 04:12:14;;;;;;;;;;;;;;;;;;4991895;28;20013;-75
2022/12/05 04:14:42;;;;;;;;;;;;;;;;;;4994679;28;19925;-74
2022/12/05 04:17:10;;;;;;;;;;;;;;;;;;4994286;28;20345;-74
2022/12/05 04:22:24;;;;;;;;;;;;;;;;;;4994665;28;20301;-75
2022/12/05 04:27:39;;;;;;;;;;;;;;;;;;4985284;28;20052;-74
2022/12/05 04:30:07;;;;;;;;;;;;;;;;;;4994775;28;19926;-75
2022/12/05 04:32:38;;;;;;;;;;;;;;;;;;4993953;28;19926;-76
2022/12/05 04:35:07;;;;;;;;;;;;;;;;;;4994797;28;19972;-76
2022/12/05 04:37:37;;;;;;;;;;;;;;;;;;4994076;28;20004;-75
2022/12/05 04:40:06;;;;;;;;;;;;;;;;;;4994702;28;19932;-76
2022/12/05 04:42:34;;;;;;;;;;;;;;;;;;4994048;28;19932;-76
2022/12/05 04:45:05;;;;;;;;;;;;;;;;;;4994377;28;20020;-76
2022/12/05 04:47:34;;;;;;;;;;;;;;;;;;4994083;28;19933;-75
2022/12/05 04:50:01;;;;;;;;;;;;;;;;;;4994300;28;20037;-76
2022/12/05 04:52:28;;;;;;;;;;;;;;;;;;4994200;28;20396;-76
2022/12/05 04:54:57;;;;;;;;;;;;;;;;;;4993965;28;20487;-74
2022/12/05 04:57:25;;;;;;;;;;;;;;;;;;4994130;28;20385;-74
2022/12/05 04:59:52;;;;;;;;;;;;;;;;;;4994069;28;19926;-76
2022/12/05 05:02:22;;;;;;;;;;;;;;;;;;4993368;28;19940;-75
2022/12/05 05:04:50;;;;;;;;;;;;;;;;;;4986166;28;20547;-75
2022/12/05 05:07:17;;;;;;;;;;;;;;;;;;4993936;28;19937;-75
2022/12/05 05:09:44;;;;;;;;;;;;;;;;;;4993718;28;19936;-76
2022/12/05 05:12:10;;;;;;;;;;;;;;;;;;4993560;28;20017;-75
2022/12/05 05:14:37;;;;;;;;;;;;;;;;;;4993288;28;19925;-75
2022/12/05 05:17:03;;;;;;;;;;;;;;;;;;4993882;28;19932;-75
2022/12/05 05:19:31;;;;;;;;;;;;;;;;;;4993508;28;19953;-75
2022/12/05 05:21:59;;;;;;;;;;;;;;;;;;4993726;28;20037;-75
2022/12/05 05:24:25;;;;;;;;;;;;;;;;;;4993702;28;19926;-75
2022/12/05 05:26:52;;;;;;;;;;;;;;;;;;4993730;28;19929;-75
2022/12/05 05:29:19;;;;;;;;;;;;;;;;;;4993518;28;20028;-75
2022/12/05 05:31:45;;;;;;;;;;;;;;;;;;4992794;28;19926;-75
2022/12/05 05:34:14;;;;;;;;;;;;;;;;;;4993151;28;19925;-75
2022/12/05 05:36:42;;;;;;;;;;;;;;;;;;4993369;28;19980;-75
2022/12/05 05:39:12;;;;;;;;;;;;;;;;;;4993656;28;19932;-76
2022/12/05 05:41:38;;;;;;;;;;;;;;;;;;4992735;28;19930;-75
2022/12/05 05:44:23;;;;;;;;;;;;;;;;;;4993363;28;20453;-75
2022/12/05 05:46:54;;;;;;;;;;;;;;;;;;4998810;28;19936;-75
2022/12/05 05:49:24;;;;;;;;;;;;;;;;;;4997216;28;19929;-75
2022/12/05 05:54:34;;;;;;;;;;;;;;;;;;4997311;28;20381;-75
2022/12/05 05:57:02;;;;;;;;;;;;;;;;;;5000632;28;19975;-75
2022/12/05 05:59:28;;;;;;;;;;;;;;;;;;4997515;28;19933;-75
2022/12/05 06:01:55;;;;;;;;;;;;;;;;;;4998965;28;19934;-75
2022/12/05 06:04:23;;;;;;;;;;;;;;;;;;4985576;28;19926;-75
2022/12/05 06:06:55;;;;;;;;;;;;;;;;;;4988355;28;19925;-75
2022/12/05 06:09:42;;;;;;;;;;;;;;;;;;4995481;28;19925;-75
2022/12/05 06:12:08;;;;;;;;;;;;;;;;;;4994195;28;19926;-75
2022/12/05 06:14:36;;;;;;;;;;;;;;;;;;4995095;28;20603;-76
2022/12/05 06:17:06;;;;;;;;;;;;;;;;;;4994291;28;19973;-75
2022/12/05 06:19:33;;;;;;;;;;;;;;;;;;4993633;28;19926;-75
2022/12/05 06:22:05;;;;;;;;;;;;;;;;;;4994748;28;20008;-75
2022/12/05 06:24:32;;;;;;;;;;;;;;;;;;4993373;28;19926;-75
2022/12/05 06:27:17;;;;;;;;;;;;;;;;;;;;;
2022/12/05 06:29:51;;;;;;;;;;;;;;;;;;4994309;28;19926;-76
2022/12/05 06:32:18;;;;;;;;;;;;;;;;;;4994011;28;19965;-76
2022/12/05 06:34:44;;;;;;;;;;;;;;;;;;4994632;28;19968;-75
2022/12/05 06:37:16;;;;;;;;;;;;;;;;;;4995650;28;19936;-76
2022/12/05 06:39:45;;;;;;;;;;;;;;;;;;4993930;28;19932;-75
2022/12/05 06:42:13;;;;;;;;;;;;;;;;;;4994399;28;19979;-76
2022/12/05 06:44:45;;;;;;;;;;;;;;;;;;4994578;28;20340;-75
2022/12/05 06:47:11;;;;;;;;;;;;;;;;;;4995471;28;20297;-75
2022/12/05 06:49:43;;;;;;;;;;;;;;;;;;4994408;28;19926;-76
2022/12/05 06:52:10;;;;;;;;;;;;;;;;;;4996105;28;19926;-76
2022/12/05 06:55:02;;;;;;;;;;;;;;;;;;4995181;28;19932;-76
2022/12/05 06:57:29;;;;;;;;;;;;;;;;;;4994529;28;19932;-76
2022/12/05 07:01:37;;;;;;;;;;;;;;;;;;4995303;28;19947;-74
2022/12/05 07:02:51;;;;;;;;;;;;;;;;;;4995647;28;19926;-75
2022/12/05 07:05:19;;;;;;;;;;;;;;;;;;4979958;28;19926;-75
2022/12/05 07:07:46;;;;;;;;;;;;;;;;;;5014788;23;20368;-73
2022/12/05 07:10:14;;;;;;;;;;;;;;;;;;5029494;28;19987;-74
2022/12/05 07:12:40;;;;;;;;;;;;;;;;;;5031383;28;20021;-74
2022/12/05 07:15:07;;;;;;;;;;;;;;;;;;5032036;28;20027;-74
2022/12/05 07:17:35;;;;;;;;;;;;;;;;;;5031642;28;20303;-75
2022/12/05 07:20:02;;;;;;;;;;;;;;;;;;5031873;28;19925;-74
2022/12/05 07:22:28;;;;;;;;;;;;;;;;;;5031009;28;20020;-74
2022/12/05 07:24:55;;;;;;;;;;;;;;;;;;5031529;28;20438;-75
2022/12/05 07:27:23;;;;;;;;;;;;;;;;;;5031300;28;20028;-75
2022/12/05 07:29:49;;;;;;;;;;;;;;;;;;5027272;28;19926;-74
2022/12/05 07:32:15;;;;;;;;;;;;;;;;;;5029068;28;20021;-75
2022/12/05 07:34:42;;;;;;;;;;;;;;;;;;5017756;28;20036;-74
2022/12/05 07:37:08;;;;;;;;;;;;;;;;;;5029081;28;19957;-75
2022/12/05 07:39:35;;;;;;;;;;;;;;;;;;5035235;28;20264;-75
2022/12/05 07:42:01;;;;;;;;;;;;;;;;;;5033717;28;19971;-74
2022/12/05 07:44:30;;;;;;;;;;;;;;;;;;5039250;28;19931;-75
2022/12/05 07:46:56;;;;;;;;;;;;;;;;;;5031813;28;19979;-74
2022/12/05 07:49:22;;;;;;;;;;;;;;;;;;5026606;28;19925;-74
2022/12/05 07:51:49;;;;;;;;;;;;;;;;;;5023129;28;19984;-75
2022/12/05 07:54:15;;;;;;;;;;;;;;;;;;5025930;28;19925;-76
2022/12/05 07:56:42;;;;;;;;;;;;;;;;;;5023736;28;20020;-75
2022/12/05 07:59:08;;;;;;;;;;;;;;;;;;5031712;28;19955;-73
2022/12/05 08:01:36;;;;;;;;;;;;;;;;;;5017726;28;19930;-73
2022/12/05 08:04:03;;;;;;;;;;;;;;;;;;5030545;28;19975;-73
2022/12/05 08:06:30;;;;;;;;;;;;;;;;;;5035034;28;19947;-73
2022/12/05 08:08:57;;;;;;;;;;;;;;;;;;5028992;28;20019;-73
2022/12/05 08:11:24;;;;;;;;;;;;;;;;;;5025248;28;20015;-74
2022/12/05 08:13:51;;;;;;;;;;;;;;;;;;5027519;28;20020;-73
2022/12/05 08:16:18;;;;;;;;;;;;;;;;;;5033177;28;20011;-75
2022/12/05 08:18:46;;;;;;;;;;;;;;;;;;5033008;28;20032;-73
2022/12/05 08:21:14;;;;;;;;;;;;;;;;;;5023357;28;20008;-73
2022/12/05 08:23:40;;;;;;;;;;;;;;;;;;5030512;28;20016;-73
2022/12/05 08:26:08;;;;;;;;;;;;;;;;;;5031231;28;19967;-72
2022/12/05 08:28:34;;;;;;;;;;;;;;;;;;5031875;28;20571;-73
2022/12/05 08:31:05;;;;;;;;;;;;;;;;;;5025046;28;20021;-75
2022/12/05 08:33:31;;;;;;;;;;;;;;;;;;5023853;28;20046;-74
2022/12/05 08:36:01;;;;;;;;;;;;;;;;;;5024757;28;20038;-75
2022/12/05 08:38:28;;;;;;;;;;;;;;;;;;5022882;28;20008;-72
2022/12/05 08:40:54;;;;;;;;;;;;;;;;;;5023250;28;20372;-73
2022/12/05 08:43:21;;;;;;;;;;;;;;;;;;5033972;28;19925;-74
2022/12/05 08:45:49;;;;;;;;;;;;;;;;;;5030808;28;19972;-73
2022/12/05 08:48:15;;;;;;;;;;;;;;;;;;5025040;28;20368;-74
2022/12/05 08:50:42;;;;;;;;;;;;;;;;;;5026137;28;20007;-75
2022/12/05 08:53:10;;;;;;;;;;;;;;;;;;5028226;28;19925;-73
2022/12/05 08:55:39;;;;;;;;;;;;;;;;;;5029508;28;19932;-85
2022/12/05 08:58:05;;;;;;;;;;;;;;;;;;5028998;28;19960;-74
2022/12/05 09:00:32;;;;;;;;;;;;;;;;;;5021484;28;19956;-74
2022/12/05 09:02:59;;;;;;;;;;;;;;;;;;5023270;28;20023;-74
2022/12/05 09:05:26;;;;;;;;;;;;;;;;;;5023925;28;19973;-72
2022/12/05 09:07:52;;;;;;;;;;;;;;;;;;5022019;28;19975;-74
2022/12/05 09:10:20;;;;;;;;;;;;;;;;;;5031943;28;19925;-73
2022/12/05 09:12:49;;;;;;;;;;;;;;;;;;5029657;28;19932;-74
2022/12/05 09:15:15;;;;;;;;;;;;;;;;;;5026415;28;19994;-73
2022/12/05 09:17:42;;;;;;;;;;;;;;;;;;5023088;28;19936;-73
2022/12/05 09:20:10;;;;;;;;;;;;;;;;;;5025316;28;20031;-74
2022/12/05 09:22:37;;;;;;;;;;;;;;;;;;5021973;28;20522;-74
2022/12/05 09:25:03;;;;;;;;;;;;;;;;;;5023215;28;19925;-73
2022/12/05 09:27:31;;;;;;;;;;;;;;;;;;5021674;28;19960;-74
2022/12/05 09:29:58;;;;;;;;;;;;;;;;;;5023424;28;19964;-75
2022/12/05 09:32:24;;;;;;;;;;;;;;;;;;5030868;28;20360;-74
2022/12/05 09:34:51;;;;;;;;;;;;;;;;;;5032069;28;20002;-73
2022/12/05 09:37:18;;;;;;;;;;;;;;;;;;5031134;28;20393;-73
2022/12/05 09:39:45;;;;;;;;;;;;;;;;;;5023792;28;19941;-74
2022/12/05 09:42:28;;;;;;;;;;;;;;;;;;5024320;28;19925;-73
2022/12/05 09:45:14;;;;;;;;;;;;;;;;;;5026638;28;19925;-75
2022/12/05 09:47:45;;;;;;;;;;;;;;;;;;5025719;28;20016;-74
2022/12/05 09:50:14;;;;;;;;;;;;;;;;;;5027230;28;20008;-78
2022/12/05 09:52:43;;;;;;;;;;;;;;;;;;5024303;28;19926;-77
2022/12/05 09:55:11;;;;;;;;;;;;;;;;;;5021113;28;19972;-80
2022/12/05 09:57:40;;;;;;;;;;;;;;;;;;5024924;28;19945;-77
2022/12/05 10:00:07;;;;;;;;;;;;;;;;;;5021488;28;20028;-75
2022/12/05 10:02:41;;;;;;;;;;;;;;;;;;5026996;28;20016;-84
2022/12/05 10:05:11;;;;;;;;;;;;;;;;;;5023162;28;20402;-75
2022/12/05 10:07:41;;;;;;;;;;;;;;;;;;5018539;28;19960;-73
2022/12/05 10:10:21;;;;;;;;;;;;;;;;;;5019341;28;19961;-74
2022/12/05 10:12:56;;;;;;;;;;;;;;;;;;5023876;28;20078;-72
2022/12/05 10:15:26;;;;;;;;;;;;;;;;;;5024253;28;20012;-73
2022/12/05 10:17:59;;;;;;;;;;;;;;;;;;5026751;28;19932;-74
2022/12/05 10:20:31;;;;;;;;;;;;;;;;;;5030146;28;19932;-73
2022/12/05 10:23:00;;;;;;;;;;;;;;;;;;5030482;28;20277;-74
2022/12/05 10:25:27;;;;;;;;;;;;;;;;;;5030107;28;19939;-73
2022/12/05 10:27:57;;;;;;;;;;;;;;;;;;5030163;28;20361;-74
2022/12/05 10:30:25;;;;;;;;;;;;;;;;;;5028512;28;19975;-73
2022/12/05 10:32:53;;;;;;;;;;;;;;;;;;5023122;28;20029;-75
2022/12/05 10:35:21;;;;;;;;;;;;;;;;;;5019711;28;19925;-74
2022/12/05 10:37:49;;;;;;;;;;;;;;;;;;5027139;28;19925;-74
2022/12/05 10:40:16;;;;;;;;;;;;;;;;;;5030183;28;20015;-70
2022/12/05 10:42:43;;;;;;;;;;;;;;;;;;5029856;28;19976;-71
2022/12/05 10:45:14;;;;;;;;;;;;;;;;;;5029972;28;20472;-72
2022/12/05 10:47:40;;;;;;;;;;;;;;;;;;5029761;28;20015;-72
2022/12/05 10:50:16;;;;;;;;;;;;;;;;;;5030436;28;20014;-72
2022/12/05 10:52:42;;;;;;;;;;;;;;;;;;5033370;28;20008;-72
2022/12/05 10:55:16;;;;;;;;;;;;;;;;;;5031566;28;20356;-72
2022/12/05 10:57:42;;;;;;;;;;;;;;;;;;5028215;28;20023;-72
2022/12/05 11:00:11;;;;;;;;;;;;;;;;;;5029645;28;19965;-72
2022/12/05 11:02:39;;;;;;;;;;;;;;;;;;5022017;28;19959;-73
2022/12/05 11:05:06;;;;;;;;;;;;;;;;;;5025382;28;19964;-73
2022/12/05 11:07:35;;;;;;;;;;;;;;;;;;5028966;28;20008;-73
2022/12/05 11:10:02;;;;;;;;;;;;;;;;;;5018155;28;20329;-73
2022/12/05 11:12:36;;;;;;;;;;;;;;;;;;5021853;28;20283;-73
2022/12/05 11:15:04;;;;;;;;;;;;;;;;;;5031308;28;19932;-73
2022/12/05 11:17:32;;;;;;;;;;;;;;;;;;5031945;28;19925;-73
2022/12/05 11:19:58;;;;;;;;;;;;;;;;;;5033060;28;19943;-74
2022/12/05 11:22:32;;;;;;;;;;;;;;;;;;5027222;28;20063;-73
2022/12/05 11:24:58;;;;;;;;;;;;;;;;;;5013816;28;19925;-74
2022/12/05 11:27:26;;;;;;;;;;;;;;;;;;5024303;28;20372;-72
2022/12/05 11:29:56;;;;;;;;;;;;;;;;;;5023815;28;20004;-74
2022/12/05 11:32:24;;;;;;;;;;;;;;;;;;5027474;28;19992;-74
2022/12/05 11:34:53;;;;;;;;;;;;;;;;;;5018831;28;20032;-74
2022/12/05 11:37:22;;;;;;;;;;;;;;;;;;5022615;28;19929;-74
2022/12/05 11:39:49;;;;;;;;;;;;;;;;;;5033338;28;19934;-74
2022/12/05 11:42:25;;;;;;;;;;;;;;;;;;5027892;28;19940;-73
2022/12/05 11:45:07;;;;;;;;;;;;;;;;;;5026767;28;19968;-75
2022/12/05 11:47:54;;;;;;;;;;;;;;;;;;5024014;28;19975;-73
2022/12/05 11:50:24;;;;;;;;;;;;;;;;;;5023746;28;19947;-73
2022/12/05 11:52:55;;;;;;;;;;;;;;;;;;5033089;28;19975;-74
2022/12/05 11:55:24;;;;;;;;;;;;;;;;;;5031482;28;20468;-74
2022/12/05 11:57:57;;;;;;;;;;;;;;;;;;5024218;28;20001;-74
2022/12/05 12:00:25;;;;;;;;;;;;;;;;;;5023046;28;19967;-73
2022/12/05 12:03:04;;;;;;;;;;;;;;;;;;5033817;28;19932;-77
2022/12/05 12:05:35;;;;;;;;;;;;;;;;;;5030209;28;20050;-77
2022/12/05 12:08:05;;;;;;;;;;;;;;;;;;5033545;28;20009;-77
2022/12/05 12:10:49;;;;;;;;;;;;;;;;;;5034778;28;19929;-77
2022/12/05 12:13:30;;;;;;;;;;;;;;;;;;5034953;28;19951;-79
2022/12/05 12:16:07;;;;;;;;;;;;;;;;;;5037463;28;20020;-82
2022/12/05 12:18:43;;;;;;;;;;;;;;;;;;5036898;28;20005;-76
2022/12/05 12:21:16;;;;;;;;;;;;;;;;;;5032264;28;19960;-75
2022/12/05 12:23:47;;;;;;;;;;;;;;;;;;5028820;28;20310;-76
2022/12/05 12:26:15;;;;;;;;;;;;;;;;;;5029218;28;19972;-76
2022/12/05 12:28:45;;;;;;;;;;;;;;;;;;5028893;28;20012;-80
2022/12/05 12:31:24;;;;;;;;;;;;;;;;;;5023667;28;20478;-76
2022/12/05 12:33:56;;;;;;;;;;;;;;;;;;5025589;28;19925;-77
2022/12/05 12:36:25;;;;;;;;;;;;;;;;;;5029903;28;20390;-77
2022/12/05 12:39:03;;;;;;;;;;;;;;;;;;5028971;28;19936;-77
2022/12/05 12:41:42;;;;;;;;;;;;;;;;;;5032952;28;19964;-77
2022/12/05 12:44:26;;;;;;;;;;;;;;;;;;5029614;28;20384;-77
2022/12/05 12:46:54;;;;;;;;;;;;;;;;;;5024244;28;20015;-76
2022/12/05 12:49:30;;;;;;;;;;;;;;;;;;5021657;28;19932;-76
2022/12/05 12:51:58;;;;;;;;;;;;;;;;;;5022782;28;19929;-77
2022/12/05 12:54:40;;;;;;;;;;;;;;;;;;5029733;28;19968;-75
2022/12/05 12:57:10;;;;;;;;;;;;;;;;;;5027846;28;19979;-77
2022/12/05 12:59:44;;;;;;;;;;;;;;;;;;5026676;28;19925;-76
2022/12/05 13:02:14;;;;;;;;;;;;;;;;;;5021097;28;19925;-76
2022/12/05 13:04:47;;;;;;;;;;;;;;;;;;5024686;28;20023;-75
2022/12/05 13:07:15;;;;;;;;;;;;;;;;;;5032566;28;19967;-76
2022/12/05 13:09:43;;;;;;;;;;;;;;;;;;5032170;28;19931;-77
2022/12/05 13:12:11;;;;;;;;;;;;;;;;;;5031445;28;19967;-77
2022/12/05 13:14:39;;;;;;;;;;;;;;;;;;5028958;28;20562;-76
2022/12/05 13:17:06;;;;;;;;;;;;;;;;;;5019998;28;19931;-77
2022/12/05 13:19:42;;;;;;;;;;;;;;;;;;5024376;28;19989;-76
2022/12/05 13:22:11;;;;;;;;;;;;;;;;;;5031260;28;19977;-76
2022/12/05 13:24:38;;;;;;;;;;;;;;;;;;5031522;28;20468;-76
2022/12/05 13:27:06;;;;;;;;;;;;;;;;;;5031198;28;19925;-74
2022/12/05 13:29:33;;;;;;;;;;;;;;;;;;5030431;28;20007;-77
2022/12/05 13:32:01;;;;;;;;;;;;;;;;;;5031399;28;19972;-75
2022/12/05 13:34:45;;;;;;;;;;;;;;;;;;5030635;28;20024;-76
2022/12/05 13:42:45;;;;;;;;;;;;;;;;;;5031577;28;19935;-78
2022/12/05 13:45:15;;;;;;;;;;;;;;;;;;5033233;28;19964;-78
2022/12/05 13:47:51;;;;;;;;;;;;;;;;;;5032914;28;19932;-77
2022/12/05 13:50:19;;;;;;;;;;;;;;;;;;5032760;28;20509;-77
2022/12/05 13:52:48;;;;;;;;;;;;;;;;;;5030316;28;19929;-77
2022/12/05 13:55:21;;;;;;;;;;;;;;;;;;5030605;28;19925;-77
2022/12/05 13:57:49;;;;;;;;;;;;;;;;;;5032377;28;19929;-74
2022/12/05 14:00:28;;;;;;;;;;;;;;;;;;5031984;28;20499;-77
2022/12/05 14:02:56;;;;;;;;;;;;;;;;;;5012973;28;20018;-76
2022/12/05 14:05:49;;;;;;;;;;;;;;;;;;5021369;28;19947;-77
2022/12/05 14:08:38;;;;;;;;;;;;;;;;;;4967029;28;20345;-76
2022/12/05 14:11:10;;;;;;;;;;;;;;;;;;5026698;28;19925;-76
2022/12/05 14:13:40;;;;;;;;;;;;;;;;;;5020962;28;20007;-77
2022/12/05 14:16:25;;;;;;;;;;;;;;;;;;5016193;28;20332;-77
2022/12/05 14:18:55;;;;;;;;;;;;;;;;;;5030569;28;19965;-79
2022/12/05 14:21:24;;;;;;;;;;;;;;;;;;5025599;28;19990;-77
2022/12/05 14:23:55;;;;;;;;;;;;;;;;;;5025003;28;20003;-77
2022/12/05 14:26:31;;;;;;;;;;;;;;;;;;5032644;28;20020;-77
2022/12/05 14:29:07;;;;;;;;;;;;;;;;;;5022723;28;19929;-76
2022/12/05 14:31:42;;;;;;;;;;;;;;;;;;5028936;28;20086;-76
2022/12/05 14:34:23;;;;;;;;;;;;;;;;;;5025480;28;20019;-77
2022/12/05 14:36:55;;;;;;;;;;;;;;;;;;5019910;28;19984;-76
2022/12/05 14:39:22;;;;;;;;;;;;;;;;;;5012416;28;19925;-75
2022/12/05 14:41:57;;;;;;;;;;;;;;;;;;5027523;28;19933;-77
2022/12/05 14:44:27;;;;;;;;;;;;;;;;;;5015832;28;19972;-77
2022/12/05 14:46:54;;;;;;;;;;;;;;;;;;5022651;28;19967;-76
2022/12/05 14:49:34;;;;;;;;;;;;;;;;;;5025190;28;19975;-77
2022/12/05 14:52:00;;;;;;;;;;;;;;;;;;5023174;28;20395;-77
2022/12/05 14:54:27;;;;;;;;;;;;;;;;;;5041610;28;19952;-77
2022/12/05 14:57:02;;;;;;;;;;;;;;;;;;5036722;28;19940;-77
2022/12/05 14:59:32;;;;;;;;;;;;;;;;;;5045791;28;20563;-75
2022/12/05 15:02:00;;;;;;;;;;;;;;;;;;5048265;28;19960;-76
2022/12/05 15:04:33;;;;;;;;;;;;;;;;;;5036649;28;20007;-76
2022/12/05 15:07:01;;;;;;;;;;;;;;;;;;5039348;28;19929;-76
2022/12/05 15:09:37;;;;;;;;;;;;;;;;;;5051494;28;20231;-75
2022/12/05 15:12:06;;;;;;;;;;;;;;;;;;5037862;28;20037;-77
2022/12/05 15:14:37;;;;;;;;;;;;;;;;;;5034060;28;19979;-76
2022/12/05 15:17:03;;;;;;;;;;;;;;;;;;5032560;28;20031;-77
2022/12/05 15:19:32;;;;;;;;;;;;;;;;;;5045319;28;20419;-77
2022/12/05 15:22:01;;;;;;;;;;;;;;;;;;5031376;28;19926;-75
2022/12/05 15:24:27;;;;;;;;;;;;;;;;;;5043387;28;19929;-77
2022/12/05 15:26:55;;;;;;;;;;;;;;;;;;5045052;28;19960;-76
2022/12/05 15:29:25;;;;;;;;;;;;;;;;;;5034435;28;19953;-76
2022/12/05 15:31:54;;;;;;;;;;;;;;;;;;5025174;28;19944;-77
2022/12/05 15:34:23;;;;;;;;;;;;;;;;;;5041566;28;20012;-77
2022/12/05 15:36:51;;;;;;;;;;;;;;;;;;5041129;28;19929;-77
2022/12/05 15:39:22;;;;;;;;;;;;;;;;;;5042089;28;19929;-74
2022/12/05 15:41:49;;;;;;;;;;;;;;;;;;5016903;28;19925;-77
2022/12/05 15:44:17;;;;;;;;;;;;;;;;;;5036231;28;20489;-78
2022/12/05 15:46:43;;;;;;;;;;;;;;;;;;5027471;28;19925;-80
2022/12/05 15:49:21;;;;;;;;;;;;;;;;;;5041348;28;19925;-77
2022/12/05 15:51:50;;;;;;;;;;;;;;;;;;5032364;28;20404;-76
2022/12/05 15:54:17;;;;;;;;;;;;;;;;;;5041422;28;20011;-76
2022/12/05 15:56:45;;;;;;;;;;;;;;;;;;5041196;28;19929;-77
2022/12/05 15:59:15;;;;;;;;;;;;;;;;;;5042773;28;19988;-77
2022/12/05 16:01:44;;;;;;;;;;;;;;;;;;5041704;28;20012;-77
2022/12/05 16:04:15;;;;;;;;;;;;;;;;;;5046127;28;19932;-77
2022/12/05 16:06:45;;;;;;;;;;;;;;;;;;5048677;28;19932;-75
2022/12/05 16:09:14;;;;;;;;;;;;;;;;;;5050693;28;20052;-76
2022/12/05 16:11:50;;;;;;;;;;;;;;;;;;5052396;28;19925;-75
2022/12/05 16:14:16;;;;;;;;;;;;;;;;;;5049064;28;19913;-77
2022/12/05 16:16:45;;;;;;;;;;;;;;;;;;5043072;28;19978;-74
2022/12/05 16:19:14;;;;;;;;;;;;;;;;;;5040203;28;19925;-76
2022/12/05 16:21:44;;;;;;;;;;;;;;;;;;5041932;28;19926;-77
2022/12/05 16:24:16;;;;;;;;;;;;;;;;;;5042084;28;19925;-76
2022/12/05 16:26:43;;;;;;;;;;;;;;;;;;5036174;28;20017;-77
2022/12/05 16:29:25;;;;;;;;;;;;;;;;;;5036128;28;20019;-77
2022/12/05 16:31:54;;;;;;;;;;;;;;;;;;5033552;28;20344;-77
2022/12/05 16:34:20;;;;;;;;;;;;;;;;;;5036344;28;19925;-75
2022/12/05 16:36:49;;;;;;;;;;;;;;;;;;5036385;28;20272;-78
2022/12/05 16:39:15;;;;;;;;;;;;;;;;;;5034970;28;20014;-77
2022/12/05 16:41:42;;;;;;;;;;;;;;;;;;5035366;28;19929;-76
2022/12/05 16:44:27;;;;;;;;;;;;;;;;;;5034736;28;20077;-77
2022/12/05 16:46:54;;;;;;;;;;;;;;;;;;5033151;28;19966;-76
2022/12/05 16:49:24;;;;;;;;;;;;;;;;;;5034488;28;20315;-77
2022/12/05 16:51:58;;;;;;;;;;;;;;;;;;5033814;28;19933;-77
2022/12/05 16:54:24;;;;;;;;;;;;;;;;;;5033952;28;19960;-77
2022/12/05 16:56:51;;;;;;;;;;;;;;;;;;5032511;28;19975;-76
2022/12/05 16:59:20;;;;;;;;;;;;;;;;;;5033273;28;20019;-75
2022/12/05 17:01:47;;;;;;;;;;;;;;;;;;5033804;28;19975;-75
2022/12/05 17:04:14;;;;;;;;;;;;;;;;;;5033146;28;19925;-77
2022/12/05 17:06:40;;;;;;;;;;;;;;;;;;5027259;28;19971;-77
2022/12/05 17:09:12;;;;;;;;;;;;;;;;;;5020877;28;19968;-74
2022/12/05 17:11:40;;;;;;;;;;;;;;;;;;5021713;28;20139;-76
2022/12/05 17:14:06;;;;;;;;;;;;;;;;;;5030948;28;20016;-78
2022/12/05 17:16:33;;;;;;;;;;;;;;;;;;5035384;28;20004;-84